Time;durP1;ratioP1;P1;durP2;ratioP2;P2;SDS_P1;SDS_P2;PMS_P1;PMS_P2;Temp;Humidity;BMP_temperature;BMP_pressure;BME280_temperature;BME280_humidity;BME280_pressure;Samples;Min_cycle;Max_cycle;Signal;HPM_P1;HPM_P2
2020/12/10 00:01:37;;;;;;;13.50;10.20;;;;;;;8.04;100.00;94160.19;5099297;28;20444;-85
2020/12/10 00:04:03;;;;;;;12.07;9.87;;;;;;;7.92;100.00;94144.75;5097862;28;20444;-85
2020/12/10 00:06:31;;;;;;;13.70;11.97;;;;;;;7.92;100.00;94145.56;5100427;28;20474;-85
2020/12/10 00:08:57;;;;;;;15.30;12.40;;;;;;;7.98;100.00;94133.75;5104248;28;20433;-85
2020/12/10 00:11:23;;;;;;;11.87;10.33;;;;;;;8.08;100.00;94135.44;5102000;28;20441;-85
2020/12/10 00:13:50;;;;;;;14.67;11.10;;;;;;;8.14;99.87;94138.50;5097753;28;20863;-86
2020/12/10 00:16:17;;;;;;;17.77;11.60;;;;;;;8.08;99.45;94122.38;5098005;28;20484;-85
2020/12/10 00:18:43;;;;;;;18.73;15.37;;;;;;;7.91;100.00;94124.81;5098048;28;20434;-85
2020/12/10 00:21:09;;;;;;;19.30;11.77;;;;;;;7.84;100.00;94119.31;5098046;28;20475;-85
2020/12/10 00:23:37;;;;;;;17.33;12.30;;;;;;;7.66;100.00;94107.81;5097711;28;20439;-85
2020/12/10 00:26:03;;;;;;;15.20;11.80;;;;;;;7.65;100.00;94125.28;5098168;28;20455;-86
2020/12/10 00:28:29;;;;;;;14.67;12.20;;;;;;;7.61;100.00;94116.06;5097190;28;20432;-86
2020/12/10 00:30:56;;;;;;;18.40;12.67;;;;;;;7.58;100.00;94115.50;5097160;28;20432;-85
2020/12/10 00:33:22;;;;;;;14.00;10.63;;;;;;;7.65;100.00;94116.59;5097030;28;20464;-85
2020/12/10 00:35:49;;;;;;;13.57;11.70;;;;;;;7.62;100.00;94122.91;5097215;28;20432;-84
2020/12/10 00:38:15;;;;;;;10.40;9.10;;;;;;;7.39;100.00;94111.00;5101863;28;20481;-86
2020/12/10 00:40:42;;;;;;;12.10;6.13;;;;;;;7.20;100.00;94119.53;5111106;28;20458;-86
2020/12/10 00:43:09;;;;;;;11.93;7.47;;;;;;;7.12;100.00;94114.97;5111063;28;20472;-84
2020/12/10 00:45:35;;;;;;;5.53;4.93;;;;;;;7.11;100.00;94117.72;5110187;28;20442;-86
2020/12/10 00:48:02;;;;;;;7.13;5.53;;;;;;;7.09;100.00;94103.97;5097290;28;20450;-85
2020/12/10 00:50:28;;;;;;;9.90;7.10;;;;;;;7.19;100.00;94090.97;5096632;28;20927;-85
2020/12/10 00:52:54;;;;;;;6.97;5.40;;;;;;;7.19;100.00;94094.41;5096713;28;20443;-85
2020/12/10 00:55:21;;;;;;;6.20;5.00;;;;;;;7.16;100.00;94089.44;5096118;28;20477;-85
2020/12/10 00:57:49;;;;;;;5.40;4.90;;;;;;;7.26;100.00;94094.75;5096526;28;20843;-85
2020/12/10 01:00:17;;;;;;;5.30;4.83;;;;;;;7.15;100.00;94103.44;5096581;28;20441;-85
2020/12/10 01:02:44;;;;;;;6.23;5.60;;;;;;;7.20;100.00;94108.28;5096242;28;20444;-85
2020/12/10 01:05:10;;;;;;;14.93;6.40;;;;;;;7.25;100.00;94109.56;5096238;28;20946;-85
2020/12/10 01:07:37;;;;;;;5.77;5.10;;;;;;;7.37;100.00;94112.91;5096450;28;20430;-85
2020/12/10 01:10:05;;;;;;;7.73;5.73;;;;;;;7.45;100.00;94107.84;5096638;28;20453;-85
2020/12/10 01:12:31;;;;;;;8.00;5.10;;;;;;;7.48;100.00;94110.22;5096047;28;20454;-85
2020/12/10 01:14:59;;;;;;;6.90;6.30;;;;;;;7.56;100.00;94097.34;5095694;28;20451;-85
2020/12/10 01:17:26;;;;;;;5.80;5.30;;;;;;;7.59;100.00;94106.69;5095794;28;20979;-85
2020/12/10 01:19:52;;;;;;;6.27;5.63;;;;;;;7.55;100.00;94090.47;5095982;28;20439;-85
2020/12/10 01:22:19;;;;;;;5.17;4.67;;;;;;;7.57;100.00;94085.13;5096001;28;20444;-86
2020/12/10 01:24:45;;;;;;;8.53;5.23;;;;;;;7.46;100.00;94084.25;5096205;28;20436;-85
2020/12/10 01:27:11;;;;;;;6.30;5.70;;;;;;;7.46;100.00;94081.63;5095837;28;20448;-85
2020/12/10 01:29:38;;;;;;;21.00;12.63;;;;;;;7.65;100.00;94080.06;5095969;28;20953;-86
2020/12/10 01:32:05;;;;;;;17.17;13.30;;;;;;;7.71;100.00;94084.75;5095714;28;20437;-86
2020/12/10 01:34:31;;;;;;;16.00;9.80;;;;;;;7.75;100.00;94075.69;5095467;28;20449;-86
2020/12/10 01:36:58;;;;;;;13.10;9.77;;;;;;;7.80;100.00;94077.88;5095695;28;20468;-85
2020/12/10 01:39:24;;;;;;;10.27;7.60;;;;;;;7.77;100.00;94063.31;5095125;28;20444;-85
2020/12/10 01:41:50;;;;;;;12.20;10.13;;;;;;;7.75;100.00;94066.06;5095430;28;20472;-85
2020/12/10 01:44:17;;;;;;;11.53;10.27;;;;;;;7.62;100.00;94060.25;5095312;28;20521;-85
2020/12/10 01:46:43;;;;;;;18.77;11.20;;;;;;;7.56;100.00;94080.84;5095416;28;20445;-85
2020/12/10 01:49:11;;;;;;;13.03;11.10;;;;;;;7.49;100.00;94070.09;5095305;28;20535;-85
2020/12/10 01:51:38;;;;;;;12.70;10.53;;;;;;;7.28;100.00;94061.50;5095420;28;20441;-85
2020/12/10 01:54:05;;;;;;;13.70;10.97;;;;;;;7.52;100.00;94053.34;5095398;28;20440;-85
2020/12/10 01:56:32;;;;;;;11.33;9.63;;;;;;;7.55;100.00;94047.88;5095088;28;20498;-85
2020/12/10 01:59:00;;;;;;;12.30;10.23;;;;;;;7.57;100.00;94072.91;5095882;28;20435;-85
2020/12/10 02:01:27;;;;;;;14.57;10.73;;;;;;;7.63;100.00;94064.53;5095639;28;20451;-85
2020/12/10 02:03:54;;;;;;;12.47;10.60;;;;;;;7.69;100.00;94066.59;5095903;28;20518;-85
2020/12/10 02:06:22;;;;;;;16.17;10.23;;;;;;;7.64;100.00;94060.94;5095573;28;20436;-85
2020/12/10 02:08:48;;;;;;;12.53;10.03;;;;;;;7.65;100.00;94069.63;5095131;28;20439;-85
2020/12/10 02:11:15;;;;;;;32.50;16.23;;;;;;;7.69;100.00;94071.00;5094795;28;20444;-85
2020/12/10 02:13:41;;;;;;;24.77;14.57;;;;;;;7.67;100.00;94067.69;5094566;28;20464;-85
2020/12/10 02:16:08;;;;;;;19.93;13.87;;;;;;;7.68;100.00;94069.34;5095045;28;20431;-85
2020/12/10 02:18:35;;;;;;;17.50;12.87;;;;;;;7.67;100.00;94076.34;5094991;28;20452;-86
2020/12/10 02:21:02;;;;;;;13.37;10.40;;;;;;;7.74;100.00;94082.69;5095058;28;20463;-85
2020/12/10 02:23:29;;;;;;;11.43;9.20;;;;;;;7.63;100.00;94068.91;5095047;28;20446;-85
2020/12/10 02:25:56;;;;;;;23.70;12.37;;;;;;;7.70;100.00;94070.03;5094571;28;20445;-85
2020/12/10 02:28:22;;;;;;;17.80;11.03;;;;;;;7.69;100.00;94047.50;5094655;28;20814;-85
2020/12/10 02:30:49;;;;;;;21.77;12.83;;;;;;;7.77;100.00;94037.19;5094467;28;20441;-85
2020/12/10 02:33:17;;;;;;;16.00;12.20;;;;;;;7.78;100.00;94033.63;5094727;28;20432;-86
2020/12/10 02:35:44;;;;;;;13.13;10.53;;;;;;;7.76;100.00;94038.97;5094620;28;20456;-85
2020/12/10 02:38:12;;;;;;;15.90;10.53;;;;;;;7.78;100.00;94034.44;5094058;28;20994;-85
2020/12/10 02:40:41;;;;;;;12.43;10.03;;;;;;;7.81;100.00;94037.78;5094542;28;20550;-85
2020/12/10 02:43:08;;;;;;;13.23;9.80;;;;;;;7.85;100.00;94044.38;5094350;28;20441;-86
2020/12/10 02:45:34;;;;;;;16.70;11.23;;;;;;;7.87;100.00;94027.63;5094126;28;20433;-85
2020/12/10 02:48:00;;;;;;;13.40;10.27;;;;;;;7.81;100.00;94040.41;5094310;28;20937;-85
2020/12/10 02:50:27;;;;;;;10.90;9.20;;;;;;;7.83;100.00;94049.75;5094568;28;20440;-86
2020/12/10 02:52:53;;;;;;;15.60;9.80;;;;;;;7.82;100.00;94034.22;5094314;28;20444;-85
2020/12/10 02:55:19;;;;;;;10.90;9.20;;;;;;;7.84;100.00;94035.72;5093903;28;20564;-86
2020/12/10 02:57:47;;;;;;;14.97;10.17;;;;;;;7.88;100.00;94046.72;5094481;28;20478;-85
2020/12/10 03:00:14;;;;;;;16.87;10.50;;;;;;;7.91;100.00;94039.44;5093821;28;20435;-85
2020/12/10 03:02:40;;;;;;;13.37;10.30;;;;;;;7.93;100.00;94034.09;5094563;28;20505;-86
2020/12/10 03:05:07;;;;;;;17.13;10.53;;;;;;;7.92;100.00;94025.41;5094092;28;20436;-85
2020/12/10 03:07:34;;;;;;;11.20;9.67;;;;;;;7.82;100.00;94045.47;5094165;28;20440;-86
2020/12/10 03:10:01;;;;;;;16.03;12.70;;;;;;;7.87;100.00;94042.47;5093988;28;20440;-86
2020/12/10 03:12:27;;;;;;;13.90;10.67;;;;;;;7.89;100.00;94038.75;5094285;28;20449;-85
2020/12/10 03:14:54;;;;;;;13.93;9.97;;;;;;;7.90;100.00;94037.78;5093991;28;20439;-85
2020/12/10 03:17:21;;;;;;;11.27;10.00;;;;;;;7.92;100.00;94035.03;5094070;28;20826;-86
2020/12/10 03:19:47;;;;;;;11.10;9.03;;;;;;;7.96;100.00;94031.19;5097659;28;20435;-85
2020/12/10 03:22:14;;;;;;;9.93;8.87;;;;;;;7.96;99.95;94032.03;5094045;28;20455;-85
2020/12/10 03:24:41;;;;;;;17.53;10.90;;;;;;;7.97;99.72;94040.69;5094159;28;20433;-86
2020/12/10 03:27:08;;;;;;;11.90;10.53;;;;;;;7.99;99.81;94042.19;5094053;28;20455;-85
2020/12/10 03:29:34;;;;;;;13.10;11.70;;;;;;;7.97;99.77;94033.66;5094160;28;20460;-85
2020/12/10 03:32:02;;;;;;;15.30;11.23;;;;;;;7.86;99.15;94007.69;5094234;28;20499;-85
2020/12/10 03:34:29;;;;;;;14.50;12.03;;;;;;;7.84;99.79;94038.34;5094111;28;20519;-86
2020/12/10 03:36:58;;;;;;;17.60;12.00;;;;;;;7.86;100.00;94036.41;5093548;28;20483;-85
2020/12/10 03:39:26;;;;;;;16.33;10.50;;;;;;;7.81;100.00;94016.88;5093852;28;20452;-86
2020/12/10 03:41:53;;;;;;;15.83;12.47;;;;;;;7.59;100.00;94023.16;5094285;28;20459;-85
2020/12/10 03:44:20;;;;;;;16.23;11.00;;;;;;;7.69;100.00;94037.88;5093678;28;20436;-85
2020/12/10 03:46:47;;;;;;;17.30;11.27;;;;;;;7.77;100.00;94030.19;5094001;28;20436;-85
2020/12/10 03:49:14;;;;;;;14.50;9.07;;;;;;;7.80;100.00;94044.75;5093839;28;20920;-86
2020/12/10 03:51:40;;;;;;;16.20;10.50;;;;;;;7.83;100.00;94060.19;5093864;28;20435;-86
2020/12/10 03:54:07;;;;;;;13.63;11.10;;;;;;;7.66;100.00;94008.59;5094160;28;20537;-86
2020/12/10 03:56:34;;;;;;;16.10;13.07;;;;;;;7.56;100.00;94024.25;5093676;28;20496;-85
2020/12/10 03:59:01;;;;;;;14.10;11.23;;;;;;;7.62;100.00;94038.56;5093887;28;20451;-85
2020/12/10 04:01:28;;;;;;;14.67;10.80;;;;;;;7.61;100.00;94052.56;5093878;28;20521;-86
2020/12/10 04:03:55;;;;;;;14.47;12.17;;;;;;;7.39;100.00;94030.91;5095970;28;20447;-86
2020/12/10 04:06:23;;;;;;;16.60;11.87;;;;;;;7.49;100.00;94051.00;5097978;28;20450;-86
2020/12/10 04:08:49;;;;;;;15.33;12.40;;;;;;;7.45;100.00;94033.00;5097456;28;20428;-85
2020/12/10 04:11:16;;;;;;;16.37;11.60;;;;;;;7.47;100.00;94035.47;5097130;28;20957;-86
2020/12/10 04:13:42;;;;;;;17.77;13.80;;;;;;;7.51;100.00;94030.81;5097280;28;20448;-85
2020/12/10 04:16:10;;;;;;;26.97;22.20;;;;;;;7.57;100.00;94023.28;5096962;28;20432;-85
2020/12/10 04:18:38;;;;;;;23.23;14.43;;;;;;;7.65;100.00;94040.91;5097167;28;20970;-85
2020/12/10 04:21:05;;;;;;;14.80;10.93;;;;;;;7.59;100.00;94039.66;5096812;28;20994;-85
2020/12/10 04:23:33;;;;;;;20.70;14.37;;;;;;;7.64;100.00;94065.34;5097091;28;20498;-85
2020/12/10 04:25:59;;;;;;;18.23;13.47;;;;;;;7.67;100.00;94078.13;5097368;28;20426;-89
2020/12/10 04:28:26;;;;;;;17.63;12.77;;;;;;;7.62;100.00;94051.59;5097932;28;20442;-89
2020/12/10 04:30:52;;;;;;;14.80;11.70;;;;;;;7.63;100.00;94068.91;5098506;28;20445;-88
2020/12/10 04:33:19;;;;;;;16.77;12.03;;;;;;;7.69;100.00;94071.00;5097933;28;20446;-89
2020/12/10 04:35:45;;;;;;;14.73;10.90;;;;;;;7.60;100.00;94050.91;5098263;28;20454;-89
2020/12/10 04:38:12;;;;;;;17.77;11.70;;;;;;;7.41;100.00;94049.88;5098352;28;20838;-89
2020/12/10 04:40:39;;;;;;;18.30;11.60;;;;;;;7.54;100.00;94052.28;5098103;28;20451;-84
2020/12/10 04:43:07;;;;;;;19.67;14.90;;;;;;;7.58;100.00;94058.06;5097106;28;20448;-85
2020/12/10 04:45:34;;;;;;;23.33;16.30;;;;;;;7.52;100.00;94051.59;5096544;28;20437;-85
2020/12/10 04:48:01;;;;;;;24.17;17.57;;;;;;;7.48;100.00;94063.22;5096490;28;20444;-86
2020/12/10 04:50:30;;;;;;;26.47;20.63;;;;;;;7.53;100.00;94042.78;5096440;28;20446;-87
2020/12/10 04:52:58;;;;;;;23.70;16.80;;;;;;;7.43;100.00;94053.19;5096603;28;20455;-84
2020/12/10 04:55:26;;;;;;;19.30;16.53;;;;;;;7.44;100.00;94069.66;5097859;28;20490;-85
2020/12/10 04:58:01;;;;;;;17.43;12.83;;;;;;;7.28;100.00;94032.81;5103721;28;20938;-87
2020/12/10 05:00:28;;;;;;;17.93;14.47;;;;;;;7.29;100.00;94063.16;5095944;28;20539;-85
2020/12/10 05:02:56;;;;;;;20.90;15.67;;;;;;;7.24;100.00;94040.06;5096204;28;20440;-84
2020/12/10 05:05:25;;;;;;;27.47;17.87;;;;;;;7.30;100.00;94063.03;5096110;28;20438;-85
2020/12/10 05:07:52;;;;;;;24.70;18.63;;;;;;;7.35;100.00;94049.59;5095928;28;20443;-84
2020/12/10 05:10:18;;;;;;;24.47;17.93;;;;;;;7.24;100.00;94034.84;5096046;28;20439;-84
2020/12/10 05:12:45;;;;;;;27.70;17.60;;;;;;;7.32;100.00;94057.69;5095883;28;20449;-85
2020/12/10 05:15:16;;;;;;;18.50;14.83;;;;;;;7.38;100.00;94041.50;5100375;28;20445;-84
2020/12/10 05:17:43;;;;;;;29.73;18.03;;;;;;;7.43;100.00;94071.44;5116551;28;20481;-84
2020/12/10 05:20:09;;;;;;;19.60;15.60;;;;;;;7.45;100.00;94074.75;5115926;28;20796;-84
2020/12/10 05:22:44;;;;;;;27.80;18.53;;;;;;;7.42;100.00;94068.97;5116035;28;20439;-83
2020/12/10 05:25:10;;;;;;;32.27;19.13;;;;;;;7.39;100.00;94075.28;5116955;28;20427;-88
2020/12/10 05:27:37;;;;;;;43.10;23.20;;;;;;;6.92;100.00;94076.69;5115836;28;20534;-84
2020/12/10 05:30:05;;;;;;;81.10;49.30;;;;;;;6.94;100.00;94068.72;5116151;28;20476;-82
2020/12/10 05:32:38;;;;;;;45.50;26.73;;;;;;;7.10;100.00;94075.16;5116237;28;20994;-84
2020/12/10 05:35:19;;;;;;;36.37;22.40;;;;;;;6.94;100.00;94055.69;5116146;28;20466;-84
2020/12/10 05:37:46;;;;;;;54.20;30.60;;;;;;;6.81;100.00;94064.53;5115984;28;20526;-84
2020/12/10 05:40:13;;;;;;;60.60;33.70;;;;;;;7.01;100.00;94060.28;5116141;28;20459;-84
2020/12/10 05:42:41;;;;;;;32.63;23.87;;;;;;;7.17;100.00;94070.22;5116403;28;20535;-84
2020/12/10 05:45:19;;;;;;;29.60;19.47;;;;;;;7.27;100.00;94062.47;5116252;28;20463;-85
2020/12/10 05:47:49;;;;;;;27.70;19.47;;;;;;;7.35;100.00;94068.69;5116262;28;20420;-84
2020/12/10 05:50:24;;;;;;;29.63;19.33;;;;;;;7.43;100.00;94074.06;5115814;28;20948;-85
2020/12/10 05:53:00;;;;;;;31.63;20.70;;;;;;;7.51;100.00;94083.00;5116162;28;20423;-84
2020/12/10 05:55:50;;;;;;;30.33;20.07;;;;;;;7.49;100.00;94066.66;5116000;28;20475;-84
2020/12/10 05:58:28;;;;;;;77.93;41.70;;;;;;;7.47;100.00;94061.56;5113417;28;21093;-84
2020/12/10 06:00:56;;;;;;;50.70;30.93;;;;;;;7.53;100.00;94061.06;5113810;28;20479;-84
2020/12/10 06:03:24;;;;;;;36.43;23.23;;;;;;;7.55;100.00;94081.81;5114002;28;20436;-84
2020/12/10 06:06:01;;;;;;;32.90;22.10;;;;;;;7.38;100.00;94063.19;5113479;28;20895;-85
2020/12/10 06:08:27;;;;;;;33.90;23.60;;;;;;;7.34;100.00;94076.63;5113447;28;20466;-85
2020/12/10 06:10:55;;;;;;;31.93;20.70;;;;;;;7.23;100.00;94085.38;5113724;28;20434;-84
2020/12/10 06:13:23;;;;;;;24.47;19.43;;;;;;;7.29;100.00;94079.66;5115072;28;20812;-84
2020/12/10 06:15:50;;;;;;;35.67;22.90;;;;;;;7.27;100.00;94068.50;5114917;28;20479;-84
2020/12/10 06:18:17;;;;;;;25.67;19.60;;;;;;;7.30;100.00;94075.25;5114563;28;20482;-84
2020/12/10 06:20:47;;;;;;;38.70;24.83;;;;;;;7.44;100.00;94077.50;5114442;28;20803;-84
2020/12/10 06:23:38;;;;;;;35.83;24.33;;;;;;;7.51;100.00;94076.00;5115231;28;20443;-83
2020/12/10 06:26:43;;;;;;;26.53;18.93;;;;;;;7.56;100.00;94086.09;5114486;28;20837;-86
2020/12/10 06:29:18;;;;;;;27.90;18.53;;;;;;;7.56;100.00;94097.34;5116554;28;20436;-84
2020/12/10 06:32:18;;;;;;;27.43;21.60;;;;;;;7.62;100.00;94096.81;5116099;28;20456;-87
2020/12/10 06:34:50;;;;;;;51.57;31.70;;;;;;;7.51;100.00;94091.66;5121405;28;20437;-82
2020/12/10 06:37:20;;;;;;;56.13;29.70;;;;;;;7.58;100.00;94107.66;5121527;28;20470;-87
2020/12/10 06:39:49;;;;;;;42.43;28.43;;;;;;;7.63;100.00;94098.47;5098765;28;20471;-84
2020/12/10 06:42:16;;;;;;;43.63;30.37;;;;;;;7.64;100.00;94107.94;5096733;28;20494;-84
2020/12/10 06:44:43;;;;;;;43.40;31.10;;;;;;;7.72;100.00;94122.94;5113709;28;20460;-84
2020/12/10 06:47:10;;;;;;;36.83;27.77;;;;;;;7.70;100.00;94096.16;5115615;28;20335;-84
2020/12/10 06:49:38;;;;;;;41.80;29.60;;;;;;;7.73;100.00;94130.66;5101200;28;20240;-86
2020/12/10 06:52:09;;;;;;;30.80;24.73;;;;;;;7.82;100.00;94112.56;5118767;28;20438;-84
2020/12/10 06:55:07;;;;;;;51.47;36.73;;;;;;;7.72;100.00;94104.66;5115997;28;20463;-85
2020/12/10 06:57:51;;;;;;;46.07;29.87;;;;;;;7.82;100.00;94107.34;5119587;28;20472;-81
2020/12/10 07:00:37;;;;;;;31.53;22.77;;;;;;;7.76;100.00;94088.59;5119733;28;20447;-82
2020/12/10 07:03:10;;;;;;;50.63;31.83;;;;;;;7.81;100.00;94084.78;5119991;28;20550;-82
2020/12/10 07:05:37;;;;;;;51.97;35.03;;;;;;;7.82;100.00;94091.66;5114760;28;20487;-83
2020/12/10 07:08:07;;;;;;;49.43;33.10;;;;;;;7.90;100.00;94095.25;5114857;28;20485;-82
2020/12/10 07:10:40;;;;;;;61.57;38.90;;;;;;;7.97;100.00;94092.94;5114559;28;20885;-84
2020/12/10 07:13:08;;;;;;;52.30;35.47;;;;;;;7.68;100.00;94106.72;5115727;28;20451;-84
2020/12/10 07:15:36;;;;;;;60.07;41.90;;;;;;;7.86;100.00;94104.31;5115318;28;20529;-93
2020/12/10 07:18:06;;;;;;;54.23;37.47;;;;;;;7.98;100.00;94102.41;5117271;28;21086;-88
2020/12/10 07:20:36;;;;;;;53.10;31.70;;;;;;;8.05;100.00;94109.56;5117795;28;20438;-87
2020/12/10 07:23:04;;;;;;;40.47;29.60;;;;;;;8.05;100.00;94109.56;5117211;28;20914;-84
2020/12/10 07:25:32;;;;;;;42.27;29.63;;;;;;;8.12;100.00;94125.56;5115643;28;20437;-83
2020/12/10 07:28:00;;;;;;;42.57;27.90;;;;;;;8.16;100.00;94126.13;5114778;28;20439;-83
2020/12/10 07:30:29;;;;;;;70.70;47.50;;;;;;;8.08;100.00;94117.16;5096580;28;20447;-82
2020/12/10 07:32:58;;;;;;;77.57;50.83;;;;;;;8.09;100.00;94117.97;5096872;28;20448;-86
2020/12/10 07:35:30;;;;;;;84.43;55.43;;;;;;;8.11;100.00;94102.19;5098185;28;20459;-84
2020/12/10 07:38:08;;;;;;;85.00;57.00;;;;;;;8.15;100.00;94103.56;5114805;28;20512;-83
2020/12/10 07:40:41;;;;;;;91.17;56.40;;;;;;;8.18;100.00;94109.34;5118649;28;20536;-82
2020/12/10 07:43:10;;;;;;;87.43;54.60;;;;;;;8.17;100.00;94099.84;5117490;28;20451;-83
2020/12/10 07:45:39;;;;;;;81.20;56.83;;;;;;;8.26;100.00;94109.50;5118311;28;20444;-83
2020/12/10 07:48:13;;;;;;;93.32;59.17;;;;;;;8.39;100.00;94111.88;5123650;28;20430;-90
2020/12/10 07:51:35;;;;;;;88.70;59.13;;;;;;;8.51;100.00;94102.13;5120052;28;20276;-87
2020/12/10 07:54:03;;;;;;;93.90;59.93;;;;;;;8.62;100.00;94121.09;5120343;28;20798;-91
2020/12/10 07:56:32;;;;;;;87.83;59.30;;;;;;;8.65;100.00;94120.81;5100552;28;20488;-82
2020/12/10 07:59:10;;;;;;;98.23;59.40;;;;;;;8.52;100.00;94117.66;5096874;28;20492;-82
2020/12/10 08:01:43;;;;;;;89.37;58.77;;;;;;;8.64;100.00;94124.41;5089100;28;20486;-82
2020/12/10 08:04:19;;;;;;;96.23;57.67;;;;;;;8.78;100.00;94128.41;5114490;28;20427;-82
2020/12/10 08:06:47;;;;;;;104.60;57.67;;;;;;;8.86;100.00;94130.34;5116790;28;20470;-82
2020/12/10 08:09:15;;;;;;;61.33;45.63;;;;;;;8.96;100.00;94129.38;5115233;28;20443;-81
2020/12/10 08:11:52;;;;;;;80.07;48.07;;;;;;;9.07;100.00;94131.00;5118289;28;20447;-82
2020/12/10 08:14:27;;;;;;;75.47;43.63;;;;;;;9.18;100.00;94137.88;5117878;28;20579;-82
2020/12/10 08:16:54;;;;;;;61.73;37.87;;;;;;;9.27;100.00;94143.13;5098996;28;20538;-80
2020/12/10 08:19:22;;;;;;;64.93;42.77;;;;;;;9.31;100.00;94139.25;5087964;28;20443;-82
2020/12/10 08:21:51;;;;;;;59.70;38.83;;;;;;;9.36;99.71;94135.38;5097061;28;20471;-79
2020/12/10 08:24:38;;;;;;;59.17;38.60;;;;;;;9.36;99.49;94124.91;5098234;28;20449;-81
2020/12/10 08:27:10;;;;;;;54.33;38.00;;;;;;;9.42;100.00;94117.28;5098121;28;20478;-83
2020/12/10 08:30:04;;;;;;;55.33;35.87;;;;;;;9.44;99.96;94115.38;5098124;28;20445;-80
2020/12/10 08:32:56;;;;;;;61.37;40.90;;;;;;;9.47;99.78;94111.63;5096373;28;20854;-84
2020/12/10 08:35:25;;;;;;;67.13;40.27;;;;;;;9.54;100.00;94116.19;5097315;28;20880;-81
2020/12/10 08:37:53;;;;;;;52.00;36.73;;;;;;;9.62;100.00;94120.69;5105483;28;20526;-82
2020/12/10 08:40:26;;;;;;;57.63;34.17;;;;;;;9.68;100.00;94120.13;5114421;28;20443;-82
2020/12/10 08:42:55;;;;;;;47.40;31.40;;;;;;;9.79;100.00;94126.97;5115426;28;20443;-82
2020/12/10 08:45:34;;;;;;;49.13;33.23;;;;;;;9.82;99.74;94118.81;5115396;28;20439;-82
2020/12/10 08:48:03;;;;;;;41.33;30.03;;;;;;;9.82;99.08;94116.19;5115728;28;20479;-82
2020/12/10 08:50:30;;;;;;;43.80;28.73;;;;;;;9.84;99.03;94096.75;5115271;28;20458;-82
2020/12/10 08:53:09;;;;;;;26.23;20.03;;;;;;;9.95;99.58;94098.34;5116833;28;20450;-81
2020/12/10 08:55:38;;;;;;;27.83;19.27;;;;;;;10.04;98.67;94091.41;5117337;28;20439;-82
2020/12/10 08:58:05;;;;;;;20.40;15.63;;;;;;;10.14;99.35;94081.69;5116574;28;20861;-82
2020/12/10 09:00:37;;;;;;;30.37;18.40;;;;;;;10.20;98.50;94076.72;5111630;28;20454;-82
2020/12/10 09:03:04;;;;;;;31.60;21.90;;;;;;;10.29;98.78;94067.13;5106838;28;20435;-82
2020/12/10 09:05:31;;;;;;;31.40;21.60;;;;;;;10.39;97.80;94077.53;5101992;28;20505;-82
2020/12/10 09:07:59;;;;;;;30.37;19.83;;;;;;;10.45;97.99;94075.19;5099196;28;21045;-82
2020/12/10 09:10:28;;;;;;;22.20;16.60;;;;;;;10.52;98.90;94075.38;5105244;28;20445;-83
2020/12/10 09:12:55;;;;;;;16.30;14.03;;;;;;;10.56;98.06;94079.34;5116432;28;20954;-82
2020/12/10 09:15:23;;;;;;;16.13;11.67;;;;;;;10.58;98.08;94073.97;5116491;28;20443;-83
2020/12/10 09:17:51;;;;;;;17.17;14.60;;;;;;;10.65;97.98;94077.63;5116562;28;20481;-82
2020/12/10 09:20:18;;;;;;;14.60;12.60;;;;;;;10.64;97.38;94083.84;5116165;28;21004;-83
2020/12/10 09:22:45;;;;;;;18.97;15.27;;;;;;;10.70;96.98;94068.34;5115778;28;20534;-83
2020/12/10 09:25:12;;;;;;;22.03;16.10;;;;;;;10.59;97.04;94070.38;5115771;28;20442;-83
2020/12/10 09:27:39;;;;;;;20.03;14.17;;;;;;;10.58;96.47;94063.47;5099811;28;20432;-83
2020/12/10 09:30:09;;;;;;;38.90;25.00;;;;;;;10.55;97.09;94064.59;5115980;28;20898;-81
2020/12/10 09:32:39;;;;;;;25.03;17.47;;;;;;;10.63;97.62;94061.22;5116562;28;20435;-80
2020/12/10 09:35:10;;;;;;;21.87;15.63;;;;;;;10.70;97.27;94059.66;5116249;28;20928;-80
2020/12/10 09:37:37;;;;;;;24.47;19.10;;;;;;;10.74;96.86;94069.69;5116553;28;20470;-81
2020/12/10 09:40:06;;;;;;;33.60;24.73;;;;;;;10.75;97.28;94055.59;5116156;28;20437;-81
2020/12/10 09:42:36;;;;;;;47.10;27.57;;;;;;;10.86;97.23;94065.03;5115254;28;20822;-82
2020/12/10 09:45:03;;;;;;;30.27;20.00;;;;;;;10.89;96.26;94072.59;5115281;28;20477;-82
2020/12/10 09:47:29;;;;;;;34.20;20.83;;;;;;;10.91;96.29;94081.13;5114944;28;20448;-82
2020/12/10 09:49:56;;;;;;;38.13;20.80;;;;;;;10.95;95.98;94082.47;5097429;28;20823;-81
2020/12/10 09:52:25;;;;;;;27.10;16.43;;;;;;;10.96;96.00;94084.13;5115054;28;20531;-81
2020/12/10 09:55:06;;;;;;;26.20;17.37;;;;;;;10.93;95.38;94084.44;5114762;28;20710;-82
2020/12/10 09:57:33;;;;;;;46.10;31.13;;;;;;;10.76;96.66;94075.63;5116020;28;20559;-80
2020/12/10 10:00:01;;;;;;;33.10;23.50;;;;;;;10.75;97.08;94073.16;5116035;28;20448;-81
2020/12/10 10:02:27;;;;;;;51.27;33.93;;;;;;;10.73;97.08;94068.06;5116452;28;20987;-83
2020/12/10 10:04:54;;;;;;;83.50;40.50;;;;;;;10.67;97.12;94065.19;5114964;28;20432;-82
2020/12/10 10:07:21;;;;;;;63.93;41.07;;;;;;;10.67;97.90;94073.06;5114644;28;20926;-81
2020/12/10 10:09:49;;;;;;;77.47;42.60;;;;;;;10.67;97.36;94057.31;5114986;28;20541;-81
2020/12/10 10:12:15;;;;;;;64.93;44.70;;;;;;;10.65;97.83;94051.38;5115559;28;20443;-81
2020/12/10 10:14:42;;;;;;;109.97;79.57;;;;;;;10.62;98.99;94049.06;5116293;28;20669;-81
2020/12/10 10:17:10;;;;;;;148.60;105.17;;;;;;;10.66;98.59;94040.75;5116141;28;20926;-81
2020/12/10 10:19:38;;;;;;;143.40;105.93;;;;;;;10.67;99.24;94046.81;5115876;28;20436;-82
2020/12/10 10:22:04;;;;;;;121.30;91.00;;;;;;;10.66;99.21;94032.06;5118839;28;20459;-81
2020/12/10 10:28:13;;;;;;;106.50;65.93;;;;;;;10.62;100.00;94018.41;5244439;22;20483;-90
2020/12/10 10:30:39;;;;;;;98.17;57.50;;;;;;;10.66;99.96;94027.63;5038868;28;20431;-91
2020/12/10 10:33:06;;;;;;;83.47;54.60;;;;;;;10.64;100.00;94005.97;5036477;28;20441;-90
2020/12/10 10:35:33;;;;;;;81.27;53.93;;;;;;;10.69;100.00;94008.13;5038542;28;20455;-91
2020/12/10 10:37:59;;;;;;;84.33;60.17;;;;;;;10.71;100.00;94011.44;5035543;28;20485;-90
2020/12/10 10:40:26;;;;;;;92.93;63.17;;;;;;;10.79;100.00;94014.94;5036476;28;20535;-91
2020/12/10 10:43:26;;;;;;;63.83;44.37;;;;;;;10.86;99.80;94018.59;5040283;28;20438;-90
2020/12/10 10:45:56;;;;;;;57.37;36.10;;;;;;;10.60;100.00;94025.63;5038349;28;20434;-91
2020/12/10 10:48:36;;;;;;;60.57;36.80;;;;;;;10.31;100.00;94025.84;5037571;28;20504;-90
2020/12/10 10:51:03;;;;;;;51.67;35.83;;;;;;;10.37;100.00;94024.41;5037405;28;20455;-91
2020/12/10 10:53:30;;;;;;;50.33;39.97;;;;;;;10.53;100.00;94030.66;5036620;28;20484;-86
2020/12/10 10:55:57;;;;;;;62.73;35.40;;;;;;;11.52;100.00;94027.69;5036407;28;20443;-92
2020/12/10 10:58:24;;;;;;;52.47;34.47;;;;;;;11.43;99.27;94032.09;5046046;28;20481;-89
2020/12/10 11:00:52;;;;;;;40.77;31.50;;;;;;;11.82;100.00;94025.56;5036371;28;20462;-86
2020/12/10 11:03:19;;;;;;;47.27;31.13;;;;;;;11.55;95.34;94022.13;5055016;28;20489;-90
2020/12/10 11:05:46;;;;;;;50.30;35.33;;;;;;;11.03;96.13;94021.34;5053490;28;20968;-90
2020/12/10 11:08:13;;;;;;;73.73;52.80;;;;;;;10.64;97.85;94008.59;5058318;28;20495;-91
2020/12/10 11:10:40;;;;;;;85.43;52.73;;;;;;;10.42;98.88;94023.03;5040312;28;20450;-87
2020/12/10 11:13:07;;;;;;;78.20;53.20;;;;;;;10.53;99.15;94014.09;5047813;28;20459;-90
2020/12/10 11:15:33;;;;;;;57.30;43.37;;;;;;;10.43;100.00;94024.66;5043070;28;20217;-86
2020/12/10 11:18:13;;;;;;;59.87;40.57;;;;;;;10.19;100.00;94025.22;5048522;28;20535;-87
2020/12/10 11:20:39;;;;;;;58.03;39.87;;;;;;;10.31;100.00;94020.59;5037154;28;20484;-86
2020/12/10 11:23:08;;;;;;;48.50;36.00;;;;;;;10.20;100.00;94010.31;5040661;28;20449;-90
2020/12/10 11:25:35;;;;;;;52.80;39.00;;;;;;;10.34;100.00;94011.63;5042178;28;20438;-89
2020/12/10 11:28:02;;;;;;;48.73;36.10;;;;;;;10.22;100.00;94008.41;5060430;28;20460;-91
2020/12/10 11:33:53;;;;;;;42.90;31.20;;;;;;;10.29;100.00;93993.72;5059613;28;20440;-89
2020/12/10 11:39:43;;;;;;;43.87;32.07;;;;;;;10.40;100.00;93979.53;5057484;28;20460;-87